New Mills, United Kingdom
Current Conditions -  °F | °C
As of 6:50 AM on Saturday 25 Oct 2014 (Local Time) from EGCC Reporting Station
Overcast Overcast  
Wind Chill: 43°   Ceiling: 3600
Heat Index: 48°   Visibility: 4mi
Dew Point: 46°   Wind: 12mph
Humidity: 93%   Direction: 190°S
Pressure: 29.91"   Gusts: NA
Location:  53.37°N, 2°W
Report Text: EGCC 250550Z AUTO 19010KT 6000 BKN036 OVC045 09/08 Q1013
Loading
Personal Weather Stations






























Interactive Weather Map New forecast layout! Learn more

10-Day Weather Forecast

Advertisements
Track Severe Weather on mobile